Time;durP1;ratioP1;P1;durP2;ratioP2;P2;SDS_P1;SDS_P2;PMS_P1;PMS_P2;Temp;Humidity;BMP_temperature;BMP_pressure;BME280_temperature;BME280_humidity;BME280_pressure;Samples;Min_cycle;Max_cycle;Signal;HPM_P1;HPM_P2
2023/04/07 00:01:05;;;;;;;44.55;23.45;;;;;;;;;;5071440;28;20090;-90
2023/04/07 00:03:52;;;;;;;49.30;24.70;;;;;;;;;;5063817;28;20039;-90
2023/04/07 00:06:44;;;;;;;48.42;25.73;;;;;;;;;;5089896;28;20100;-90
2023/04/07 00:09:29;;;;;;;44.95;25.40;;;;;;;;;;5070263;28;20082;-90
2023/04/07 00:12:15;;;;;;;47.38;23.98;;;;;;;;;;5062313;28;20058;-90
2023/04/07 00:15:04;;;;;;;49.75;25.00;;;;;;;;;;5061515;28;20094;-90
2023/04/07 00:17:49;;;;;;;50.58;26.42;;;;;;;;;;5077896;28;20070;-91
2023/04/07 00:20:42;;;;;;;50.30;26.90;;;;;;;;;;5079684;28;20184;-89
2023/04/07 00:23:30;;;;;;;52.30;26.52;;;;;;;;;;5060848;28;20495;-90
2023/04/07 00:26:15;;;;;;;49.20;25.17;;;;;;;;;;5065218;28;20051;-90
2023/04/07 00:28:59;;;;;;;49.35;26.92;;;;;;;;;;5079291;28;20030;-90
2023/04/07 00:31:44;;;;;;;49.22;26.15;;;;;;;;;;5089115;28;20499;-90
2023/04/07 00:34:29;;;;;;;52.03;26.38;;;;;;;;;;5093129;28;20115;-90
2023/04/07 00:37:18;;;;;;;45.78;24.70;;;;;;;;;;5087929;28;20518;-89
2023/04/07 00:40:05;;;;;;;48.80;25.52;;;;;;;;;;5091343;28;20043;-90
2023/04/07 00:42:50;;;;;;;51.63;26.85;;;;;;;;;;5086413;28;20035;-91
2023/04/07 00:45:37;;;;;;;53.47;26.88;;;;;;;;;;5051850;28;20078;-91
2023/04/07 00:48:24;;;;;;;50.30;27.00;;;;;;;;;;5079127;28;20039;-90
2023/04/07 00:51:12;;;;;;;46.05;24.35;;;;;;;;;;5065024;28;20034;-90
2023/04/07 00:53:57;;;;;;;54.05;27.23;;;;;;;;;;5079478;28;20505;-91
2023/04/07 00:56:46;;;;;;;53.08;26.17;;;;;;;;;;5073440;28;20087;-91
2023/04/07 00:59:31;;;;;;;49.28;25.98;;;;;;;;;;5073823;28;20058;-92
2023/04/07 01:02:20;;;;;;;55.15;27.98;;;;;;;;;;5061646;28;20031;-90
2023/04/07 01:05:11;;;;;;;48.42;25.67;;;;;;;;;;5073138;28;20039;-90
2023/04/07 01:08:28;;;;;;;47.88;26.67;;;;;;;;;;5073416;28;20055;-90
2023/04/07 01:11:24;;;;;;;51.50;26.65;;;;;;;;;;5052299;28;20542;-91
2023/04/07 01:14:12;;;;;;;49.90;26.30;;;;;;;;;;5052710;28;20041;-91
2023/04/07 01:16:58;;;;;;;53.28;26.42;;;;;;;;;;5066458;28;20111;-90
2023/04/07 01:19:46;;;;;;;50.35;27.02;;;;;;;;;;5064669;28;20063;-90
2023/04/07 01:22:33;;;;;;;52.10;26.33;;;;;;;;;;5072545;28;20039;-90
2023/04/07 01:25:35;;;;;;;49.72;26.75;;;;;;;;;;5071619;28;20202;-91
2023/04/07 01:28:28;;;;;;;50.33;26.38;;;;;;;;;;5071767;28;20090;-90
2023/04/07 01:31:17;;;;;;;50.80;26.38;;;;;;;;;;5072851;28;20157;-91
2023/04/07 01:34:03;;;;;;;46.15;23.27;;;;;;;;;;5072197;28;20086;-90
2023/04/07 01:36:50;;;;;;;50.53;26.23;;;;;;;;;;5072136;28;20081;-91
2023/04/07 01:39:36;;;;;;;46.00;25.25;;;;;;;;;;5052216;28;20568;-89
2023/04/07 01:42:21;;;;;;;47.95;25.80;;;;;;;;;;5067604;28;20048;-89
2023/04/07 01:45:14;;;;;;;54.92;27.70;;;;;;;;;;5071651;28;20389;-92
2023/04/07 01:48:02;;;;;;;45.72;24.60;;;;;;;;;;5071953;28;20035;-90
2023/04/07 01:50:50;;;;;;;45.13;25.38;;;;;;;;;;5071867;28;20039;-90
2023/04/07 01:53:36;;;;;;;46.88;25.13;;;;;;;;;;5047213;28;20048;-90
2023/04/07 01:56:28;;;;;;;50.25;24.45;;;;;;;;;;5079850;28;20113;-90
2023/04/07 01:59:18;;;;;;;48.30;24.83;;;;;;;;;;5077344;28;20507;-91
2023/04/07 02:02:05;;;;;;;52.00;26.98;;;;;;;;;;5064590;28;20590;-90
2023/04/07 02:04:53;;;;;;;52.63;25.92;;;;;;;;;;5077168;28;20043;-90
2023/04/07 02:07:43;;;;;;;51.63;26.38;;;;;;;;;;5077526;28;20101;-90
2023/04/07 02:10:31;;;;;;;52.42;27.67;;;;;;;;;;5076840;28;20063;-90
2023/04/07 02:13:18;;;;;;;49.63;25.90;;;;;;;;;;5076769;28;20188;-90
2023/04/07 02:16:04;;;;;;;50.72;26.30;;;;;;;;;;5092623;28;20394;-89
2023/04/07 02:18:49;;;;;;;52.72;26.83;;;;;;;;;;5077063;28;20080;-91
2023/04/07 02:21:45;;;;;;;47.45;26.13;;;;;;;;;;5092363;28;20081;-90
2023/04/07 02:24:33;;;;;;;44.80;25.13;;;;;;;;;;5082627;28;20116;-90
2023/04/07 02:27:20;;;;;;;52.55;26.90;;;;;;;;;;5074864;28;20044;-89
2023/04/07 02:30:05;;;;;;;49.30;24.90;;;;;;;;;;5063422;28;20078;-90
2023/04/07 02:32:50;;;;;;;51.72;25.95;;;;;;;;;;5061829;28;20047;-90
2023/04/07 02:35:35;;;;;;;59.03;27.80;;;;;;;;;;5076346;28;20150;-90
2023/04/07 02:38:22;;;;;;;49.55;25.35;;;;;;;;;;5076384;28;20082;-90
2023/04/07 02:41:07;;;;;;;50.47;26.80;;;;;;;;;;5076133;28;20070;-90
2023/04/07 02:43:52;;;;;;;53.78;26.67;;;;;;;;;;5076532;28;20042;-91
2023/04/07 02:46:36;;;;;;;49.45;25.98;;;;;;;;;;5076064;28;20130;-90
2023/04/07 02:49:21;;;;;;;50.63;27.27;;;;;;;;;;5076149;28;20066;-90
2023/04/07 02:52:06;;;;;;;52.13;26.80;;;;;;;;;;5062280;28;20100;-89
2023/04/07 02:54:53;;;;;;;55.53;27.02;;;;;;;;;;5076420;28;20043;-89
2023/04/07 02:57:41;;;;;;;45.50;25.08;;;;;;;;;;5077879;28;20050;-89
2023/04/07 03:00:25;;;;;;;51.88;26.30;;;;;;;;;;5075750;28;20036;-90
2023/04/07 03:03:10;;;;;;;46.50;25.60;;;;;;;;;;5062368;28;20046;-90
2023/04/07 03:05:57;;;;;;;57.10;26.92;;;;;;;;;;5076168;28;20081;-89
2023/04/07 03:08:49;;;;;;;49.08;26.17;;;;;;;;;;5076473;28;20039;-89
2023/04/07 03:11:34;;;;;;;51.30;26.90;;;;;;;;;;5065208;28;20441;-90
2023/04/07 03:14:19;;;;;;;47.40;26.75;;;;;;;;;;5075856;28;20148;-90
2023/04/07 03:17:04;;;;;;;46.83;26.23;;;;;;;;;;5064215;28;20078;-90
2023/04/07 03:19:51;;;;;;;46.58;24.52;;;;;;;;;;5076434;28;20063;-90
2023/04/07 03:22:36;;;;;;;50.97;25.02;;;;;;;;;;5076031;28;20702;-90
2023/04/07 03:25:26;;;;;;;49.45;25.55;;;;;;;;;;5061875;28;20051;-90
2023/04/07 03:28:13;;;;;;;48.50;25.65;;;;;;;;;;5076419;28;20503;-89
2023/04/07 03:31:01;;;;;;;45.90;24.83;;;;;;;;;;5076288;28;20070;-89
2023/04/07 03:33:46;;;;;;;44.08;23.45;;;;;;;;;;5076154;28;20039;-89
2023/04/07 03:36:30;;;;;;;44.20;24.67;;;;;;;;;;5075601;28;20104;-89
2023/04/07 03:39:15;;;;;;;45.90;24.73;;;;;;;;;;5091782;28;20078;-90
2023/04/07 03:42:00;;;;;;;43.83;25.63;;;;;;;;;;5076299;28;20035;-89
2023/04/07 03:44:45;;;;;;;42.33;23.02;;;;;;;;;;5061673;28;20514;-88
2023/04/07 03:47:29;;;;;;;36.92;22.85;;;;;;;;;;5075542;28;20073;-88
2023/04/07 03:50:14;;;;;;;40.70;24.08;;;;;;;;;;5076141;28;20063;-88
2023/04/07 03:52:59;;;;;;;40.90;22.92;;;;;;;;;;5078020;28;20085;-88
2023/04/07 03:55:43;;;;;;;46.17;24.50;;;;;;;;;;5079064;28;20035;-88
2023/04/07 03:58:28;;;;;;;44.67;23.85;;;;;;;;;;5065000;28;20082;-88
2023/04/07 04:01:13;;;;;;;43.38;24.55;;;;;;;;;;5065603;28;20074;-87
2023/04/07 04:03:58;;;;;;;38.85;22.80;;;;;;;;;;5079387;28;20101;-87
2023/04/07 04:06:42;;;;;;;37.38;22.50;;;;;;;;;;5078878;28;20144;-87
2023/04/07 04:09:27;;;;;;;40.13;22.83;;;;;;;;;;5082719;28;20047;-88
2023/04/07 04:12:11;;;;;;;39.78;24.00;;;;;;;;;;5094686;28;20075;-89
2023/04/07 04:14:56;;;;;;;43.17;24.17;;;;;;;;;;5094881;28;20039;-88
2023/04/07 04:17:40;;;;;;;40.58;22.38;;;;;;;;;;5094281;28;20062;-87
2023/04/07 04:20:25;;;;;;;43.55;24.35;;;;;;;;;;5094214;28;20065;-91
2023/04/07 04:23:09;;;;;;;42.35;23.55;;;;;;;;;;5065141;28;20082;-87
2023/04/07 04:25:54;;;;;;;44.60;24.70;;;;;;;;;;5079128;28;20139;-86
2023/04/07 04:28:38;;;;;;;47.15;24.42;;;;;;;;;;5078783;28;20047;-87
2023/04/07 04:31:23;;;;;;;44.80;24.15;;;;;;;;;;5052077;28;20035;-87
2023/04/07 04:34:07;;;;;;;44.90;25.08;;;;;;;;;;5064829;28;20097;-88
2023/04/07 04:36:52;;;;;;;44.50;23.00;;;;;;;;;;5094090;28;20118;-89
2023/04/07 04:39:36;;;;;;;43.72;24.40;;;;;;;;;;5093468;28;20035;-87
2023/04/07 04:42:21;;;;;;;40.00;23.58;;;;;;;;;;5094287;28;20119;-87
2023/04/07 04:45:06;;;;;;;41.40;22.95;;;;;;;;;;5085245;28;20082;-89
2023/04/07 04:47:50;;;;;;;42.15;23.52;;;;;;;;;;5065075;28;20051;-94
2023/04/07 04:50:58;;;;;;;31.63;19.90;;;;;;;;;;5074225;28;20039;-94
2023/04/07 04:53:45;;;;;;;43.55;22.95;;;;;;;;;;5084428;28;20062;-92
2023/04/07 04:56:45;;;;;;;;;;;;;;;;;;;;;
2023/04/07 04:59:41;;;;;;;34.28;19.33;;;;;;;;;;5053630;28;20031;-93
2023/04/07 05:03:02;;;;;;;;;;;;;;;;;;;;;
2023/04/07 05:06:02;;;;;;;46.80;24.23;;;;;;;;;;5081423;28;20048;-92
2023/04/07 05:09:10;;;;;;;46.88;24.30;;;;;;;;;;5059897;28;20040;-94
2023/04/07 05:22:06;;;;;;;42.08;22.13;;;;;;;;;;5068682;28;20140;-95
2023/04/07 05:24:50;;;;;;;29.55;17.80;;;;;;;;;;5071517;28;20507;-87
2023/04/07 05:27:35;;;;;;;41.72;23.27;;;;;;;;;;5061657;28;20047;-88
2023/04/07 05:30:20;;;;;;;37.28;21.13;;;;;;;;;;5072005;28;20502;-89
2023/04/07 05:33:04;;;;;;;42.33;22.70;;;;;;;;;;5071879;28;20396;-86
2023/04/07 05:35:49;;;;;;;44.47;23.55;;;;;;;;;;5065513;28;20105;-86
2023/04/07 05:38:33;;;;;;;41.45;22.80;;;;;;;;;;5063951;28;20093;-91
2023/04/07 05:41:18;;;;;;;44.80;23.70;;;;;;;;;;5093126;28;20549;-86
2023/04/07 05:44:05;;;;;;;43.00;22.67;;;;;;;;;;5093118;28;20051;-86
2023/04/07 05:46:50;;;;;;;40.28;22.17;;;;;;;;;;5063718;28;20102;-86
2023/04/07 05:49:35;;;;;;;39.20;22.95;;;;;;;;;;5077946;28;20089;-86
2023/04/07 05:52:20;;;;;;;44.42;23.33;;;;;;;;;;5093143;28;20541;-86
2023/04/07 05:55:05;;;;;;;34.35;19.42;;;;;;;;;;5092934;28;20507;-86
2023/04/07 05:57:50;;;;;;;37.50;21.95;;;;;;;;;;5092764;28;20067;-86
2023/04/07 06:00:34;;;;;;;36.42;19.95;;;;;;;;;;5077402;28;20054;-87
2023/04/07 06:03:21;;;;;;;33.67;19.35;;;;;;;;;;5077716;28;20047;-86
2023/04/07 06:06:06;;;;;;;33.58;19.90;;;;;;;;;;5092940;28;20047;-86
2023/04/07 06:08:50;;;;;;;34.65;20.80;;;;;;;;;;5076753;28;20043;-86
2023/04/07 06:11:35;;;;;;;34.20;21.58;;;;;;;;;;5077578;28;20039;-86
2023/04/07 06:14:20;;;;;;;36.28;21.30;;;;;;;;;;5092322;28;20503;-86
2023/04/07 06:17:05;;;;;;;36.10;21.38;;;;;;;;;;5077043;28;20047;-86
2023/04/07 06:19:50;;;;;;;36.38;21.80;;;;;;;;;;5056962;28;20047;-87
2023/04/07 06:22:38;;;;;;;36.65;20.08;;;;;;;;;;5075530;28;20055;-86
2023/04/07 06:25:23;;;;;;;37.08;19.98;;;;;;;;;;5076847;28;20039;-87
2023/04/07 06:28:10;;;;;;;33.17;19.48;;;;;;;;;;5080713;28;20769;-87
2023/04/07 06:30:54;;;;;;;32.45;19.45;;;;;;;;;;5076671;28;20039;-87
2023/04/07 06:33:39;;;;;;;38.05;20.33;;;;;;;;;;5092479;28;20085;-87
2023/04/07 06:36:23;;;;;;;32.35;18.63;;;;;;;;;;5063660;28;20039;-88
2023/04/07 06:39:08;;;;;;;34.30;20.65;;;;;;;;;;5092576;28;20113;-88
2023/04/07 06:41:53;;;;;;;34.95;20.35;;;;;;;;;;5091812;28;20517;-86
2023/04/07 06:44:37;;;;;;;36.70;20.48;;;;;;;;;;5076979;28;20123;-88
2023/04/07 06:47:22;;;;;;;32.60;19.70;;;;;;;;;;5076985;28;20050;-83
2023/04/07 06:50:07;;;;;;;32.75;20.27;;;;;;;;;;5075824;28;20043;-87
2023/04/07 06:52:52;;;;;;;34.00;19.65;;;;;;;;;;5076586;28;20043;-86
2023/04/07 06:55:36;;;;;;;33.78;21.70;;;;;;;;;;5077116;28;20074;-86
2023/04/07 06:58:20;;;;;;;33.97;20.48;;;;;;;;;;5062250;28;20059;-85
2023/04/07 07:01:05;;;;;;;30.10;19.58;;;;;;;;;;5064840;28;20699;-87
2023/04/07 07:03:50;;;;;;;31.08;18.73;;;;;;;;;;5074632;28;20043;-86
2023/04/07 07:06:35;;;;;;;32.08;19.17;;;;;;;;;;5076607;28;20411;-86
2023/04/07 07:09:19;;;;;;;29.27;18.42;;;;;;;;;;5075489;28;20047;-85
2023/04/07 07:12:05;;;;;;;31.92;18.85;;;;;;;;;;5077902;28;20044;-86
2023/04/07 07:14:49;;;;;;;30.65;18.25;;;;;;;;;;5066046;28;20165;-86
2023/04/07 07:17:35;;;;;;;29.42;18.20;;;;;;;;;;5075485;28;20031;-86
2023/04/07 07:20:22;;;;;;;28.08;18.42;;;;;;;;;;5063330;28;20039;-85
2023/04/07 07:23:07;;;;;;;26.77;17.67;;;;;;;;;;5064917;28;20105;-86
2023/04/07 07:25:52;;;;;;;31.42;19.60;;;;;;;;;;5090066;28;20097;-86
2023/04/07 07:28:36;;;;;;;27.83;17.73;;;;;;;;;;5094436;28;20101;-86
2023/04/07 07:31:21;;;;;;;32.22;18.52;;;;;;;;;;5095374;28;20056;-86
2023/04/07 07:34:06;;;;;;;29.85;18.25;;;;;;;;;;5066190;28;20081;-86
2023/04/07 07:36:50;;;;;;;34.97;18.33;;;;;;;;;;5094029;28;20077;-90
2023/04/07 07:39:35;;;;;;;27.77;17.88;;;;;;;;;;5094175;28;20058;-85
2023/04/07 07:42:20;;;;;;;28.65;17.75;;;;;;;;;;5080054;28;20039;-86
2023/04/07 07:45:05;;;;;;;26.48;18.27;;;;;;;;;;5079284;28;20503;-86
2023/04/07 07:47:50;;;;;;;26.60;17.42;;;;;;;;;;5095285;28;20039;-90
2023/04/07 07:50:34;;;;;;;28.08;18.42;;;;;;;;;;5095346;28;20080;-87
2023/04/07 07:53:19;;;;;;;25.02;16.83;;;;;;;;;;5095103;28;20035;-86
2023/04/07 07:56:04;;;;;;;23.25;15.13;;;;;;;;;;5079574;28;20143;-86
2023/04/07 07:58:49;;;;;;;25.25;17.58;;;;;;;;;;5065974;28;20116;-86
2023/04/07 08:01:33;;;;;;;27.75;17.20;;;;;;;;;;5065948;28;20063;-86
2023/04/07 08:04:20;;;;;;;28.08;15.32;;;;;;;;;;5079679;28;20438;-87
2023/04/07 08:07:05;;;;;;;22.00;15.40;;;;;;;;;;5094467;28;20035;-86
2023/04/07 08:09:50;;;;;;;22.63;15.75;;;;;;;;;;5094831;28;20047;-86
2023/04/07 08:12:34;;;;;;;25.27;15.23;;;;;;;;;;5079519;28;20048;-86
2023/04/07 08:15:19;;;;;;;21.50;14.63;;;;;;;;;;5078960;28;20042;-85
2023/04/07 08:18:05;;;;;;;22.85;15.57;;;;;;;;;;5078947;28;20495;-86
2023/04/07 08:20:50;;;;;;;20.50;13.60;;;;;;;;;;5094580;28;20089;-85
2023/04/07 08:23:35;;;;;;;21.15;13.77;;;;;;;;;;5094695;28;20545;-85
2023/04/07 08:26:20;;;;;;;19.73;13.38;;;;;;;;;;5066401;28;20051;-85
2023/04/07 08:29:05;;;;;;;21.63;14.38;;;;;;;;;;5093886;28;20082;-85
2023/04/07 08:31:49;;;;;;;20.60;13.07;;;;;;;;;;5064994;28;20149;-86
2023/04/07 08:34:34;;;;;;;18.30;13.05;;;;;;;;;;5094441;28;20093;-85
2023/04/07 08:37:18;;;;;;;20.00;12.10;;;;;;;;;;5078382;28;20089;-85
2023/04/07 08:40:03;;;;;;;18.88;12.63;;;;;;;;;;5064150;28;20494;-85
2023/04/07 08:42:48;;;;;;;18.70;11.10;;;;;;;;;;5079008;28;20035;-85
2023/04/07 08:45:33;;;;;;;17.67;12.18;;;;;;;;;;5094126;28;20043;-85
2023/04/07 08:48:18;;;;;;;18.15;12.13;;;;;;;;;;5093352;28;20043;-85
2023/04/07 08:51:09;;;;;;;15.43;9.65;;;;;;;;;;5064240;28;20082;-85
2023/04/07 08:53:57;;;;;;;15.07;9.75;;;;;;;;;;5078480;28;20043;-86
2023/04/07 08:56:42;;;;;;;15.40;9.75;;;;;;;;;;5093663;28;20054;-85
2023/04/07 08:59:28;;;;;;;13.60;9.00;;;;;;;;;;5078497;28;20392;-85
2023/04/07 09:02:14;;;;;;;14.25;9.77;;;;;;;;;;5077729;28;20113;-85
2023/04/07 09:04:59;;;;;;;14.63;10.43;;;;;;;;;;5064184;28;20039;-90
2023/04/07 09:07:44;;;;;;;14.27;10.07;;;;;;;;;;5093710;28;20085;-85
2023/04/07 09:10:29;;;;;;;16.85;11.55;;;;;;;;;;5064296;28;20035;-84
2023/04/07 09:13:14;;;;;;;18.05;11.45;;;;;;;;;;5063549;28;20039;-86
2023/04/07 09:16:01;;;;;;;15.73;10.30;;;;;;;;;;5093426;28;20067;-85
2023/04/07 09:18:45;;;;;;;16.88;11.48;;;;;;;;;;5093109;28;20058;-85
2023/04/07 09:21:50;;;;;;;14.68;10.07;;;;;;;;;;5064006;28;20047;-85
2023/04/07 09:24:34;;;;;;;;;;;9.00;99.90;;;;;;5093752;28;20036;-85
2023/04/07 09:27:19;;;;;;;17.60;10.95;;;;;;;;;;5077371;28;20029;-85
2023/04/07 09:30:11;;;;;;;14.98;9.10;;;;;;;;;;5077621;28;20058;-91
2023/04/07 09:32:57;;;;;;;14.30;10.20;;;;;;;;;;5063755;28;20186;-85
2023/04/07 09:35:52;;;;;;;14.15;10.07;;;;;;;;;;5092995;28;20042;-85
2023/04/07 09:38:37;;;;;;;15.43;9.88;;;;;;;;;;5077980;28;20405;-85
2023/04/07 09:41:21;;;;;;;16.02;10.45;;;;;;;;;;5092196;28;20043;-85
2023/04/07 09:44:06;;;;;;;15.55;9.98;;;;;;;;;;5092438;28;20094;-87
2023/04/07 09:46:58;;;;;;;14.18;10.27;;;;;;;;;;5093694;28;20039;-85
2023/04/07 09:49:53;;;;;;;16.90;9.82;;;;;;;;;;5095394;28;20031;-83
2023/04/07 09:52:51;;;;;;;15.30;9.95;;;;;;;;;;5067469;28;20067;-83
2023/04/07 09:55:36;;;;;;;13.07;8.90;;;;;;;;;;5077381;28;20526;-84
2023/04/07 09:58:21;;;;;;;13.45;10.25;;;;;;;;;;5076607;28;20131;-84
2023/04/07 10:01:08;;;;;;;12.50;9.00;;;;;;;;;;5077176;28;20043;-88
2023/04/07 10:03:55;;;;;;;14.15;8.63;;;;;;;;;;5076901;28;20097;-83
2023/04/07 10:06:41;;;;;;;12.60;8.95;;;;;;;;;;5077233;28;20158;-84
2023/04/07 10:09:29;;;;;;;15.15;9.70;;;;;;;;;;5079797;28;20047;-84
2023/04/07 10:12:14;;;;;;;14.40;9.73;;;;;;;;;;5076362;28;20038;-84
2023/04/07 10:15:00;;;;;;;13.48;9.07;;;;;;;;;;5063110;28;20078;-83
2023/04/07 10:17:47;;;;;;;12.27;9.25;;;;;;;;;;5092330;28;20533;-84
2023/04/07 10:20:32;;;;;;;11.48;8.48;;;;;;;;;;5076498;28;20046;-84
2023/04/07 10:23:20;;;;;;;12.70;9.57;;;;;;;;;;5076545;28;20043;-84
2023/04/07 10:26:06;;;;;;;16.17;9.55;;;;;;;;;;5091995;28;20088;-83
2023/04/07 10:28:55;;;;;;;12.32;8.57;;;;;;;;;;5075983;28;20054;-85
2023/04/07 10:31:39;;;;;;;13.95;9.00;;;;;;;;;;5077061;28;20036;-84
2023/04/07 10:34:49;;;;;;;13.38;9.85;;;9.50;99.90;;;;;;5077543;28;20081;-84
2023/04/07 10:37:33;;;;;;;14.95;10.35;;;;;;;;;;5077619;28;20035;-85
2023/04/07 10:40:18;;;;;;;14.20;8.98;;;;;;;;;;5064856;28;20075;-84
2023/04/07 10:43:03;;;;;;;14.60;9.27;;;;;;;;;;5076364;28;20108;-85
2023/04/07 10:45:47;;;;;;;13.57;9.70;;;;;;;;;;5091959;28;20090;-85
2023/04/07 10:48:32;;;;;;;12.75;8.85;;;;;;;;;;5075846;28;20081;-85
2023/04/07 10:51:19;;;;;;;14.02;9.07;;;;;;;;;;5075907;28;20096;-84
2023/04/07 10:54:21;;;;;;;15.85;10.18;;;;;;;;;;5077078;28;20114;-85
2023/04/07 10:57:08;;;;;;;13.23;9.63;;;;;;;;;;5091785;28;20075;-85
2023/04/07 11:00:12;;;;;;;13.70;10.10;;;;;;;;;;5076323;28;20115;-84
2023/04/07 11:02:56;;;;;;;16.23;11.50;;;;;;;;;;5066988;28;20085;-85
2023/04/07 11:05:41;;;;;;;12.55;9.02;;;;;;;;;;5076132;28;20120;-85
2023/04/07 11:08:39;;;;;;;13.02;7.15;;;;;;;;;;5072279;28;20123;-88
2023/04/07 11:11:40;;;;;;;13.05;7.97;;;;;;;;;;5084939;28;20066;-85
2023/04/07 11:14:26;;;;;;;11.02;6.90;;;;;;;;;;5083182;28;20530;-86
2023/04/07 11:17:16;;;;;;;10.57;6.68;;;;;;;;;;5075863;28;20031;-86
2023/04/07 11:20:01;;;;;;;10.93;6.97;;;;;;;;;;5076174;28;20051;-86
2023/04/07 11:22:59;;;;;;;11.05;7.65;;;;;;;;;;5084525;28;20105;-86
2023/04/07 11:25:47;;;;;;;10.10;6.80;;;;;;;;;;5067218;28;20084;-88
2023/04/07 11:28:32;;;;;;;13.00;7.95;;;;;;;;;;5062737;28;20055;-85
2023/04/07 11:31:23;;;;;;;10.32;8.27;;;;;;;;;;5085873;28;20062;-92
2023/04/07 11:34:08;;;;;;;9.85;7.07;;;;;;;;;;5061891;28;20047;-86
2023/04/07 11:36:58;;;;;;;10.50;7.40;;;;;;;;;;5076488;28;20044;-86
2023/04/07 11:39:45;;;;;;;10.07;6.88;;;;;;;;;;5082138;28;20031;-85
2023/04/07 11:42:37;;;;;;;11.50;7.75;;;;;;;;;;5075520;28;20047;-86
2023/04/07 11:45:22;;;;;;;10.27;6.78;;;;;;;;;;5090055;28;20046;-85
2023/04/07 11:48:25;;;;;;;8.93;6.50;;;;;;;;;;5088491;28;20411;-87
2023/04/07 11:51:21;;;;;;;9.80;6.97;;;;;;;;;;5083060;28;20132;-86
2023/04/07 11:54:06;;;;;;;8.98;6.80;;;;;;;;;;5091206;28;20132;-87
2023/04/07 11:56:54;;;;;;;9.50;6.65;;;;;;;;;;5075456;28;20067;-86
2023/04/07 11:59:40;;;;;;;10.95;6.53;;;;;;;;;;5063434;28;20397;-87
2023/04/07 12:02:34;;;;;;;9.02;6.70;;;;;;;;;;5059511;28;20042;-86
2023/04/07 12:05:21;;;;;;;8.80;6.43;;;;;;;;;;5088988;28;20081;-85
2023/04/07 12:08:06;;;;;;;8.93;6.80;;;;;;;;;;5090212;28;20404;-86
2023/04/07 12:11:03;;;;;;;8.10;5.65;;;;;;;;;;5090415;28;20069;-85
2023/04/07 12:13:48;;;;;;;8.65;6.53;;;;;;;;;;5076794;28;20073;-85
2023/04/07 12:16:37;;;;;;;9.15;6.70;;;;;;;;;;5078672;28;20101;-87
2023/04/07 12:19:22;;;;;;;9.15;6.30;;;;;;;;;;5077996;28;20046;-88
2023/04/07 12:22:15;;;;;;;10.23;6.97;;;;;;;;;;5094318;28;20464;-86
2023/04/07 12:25:00;;;;;;;9.70;6.47;;;;;;;;;;5084647;28;20488;-85
2023/04/07 12:27:45;;;;;;;9.00;6.40;;;;;;;;;;5063541;28;20043;-85
2023/04/07 12:30:30;;;;;;;8.80;5.32;;;;;;;;;;5078135;28;20392;-85
2023/04/07 12:33:15;;;;;;;8.93;6.57;;;;;;;;;;5082612;28;20035;-85
2023/04/07 12:36:00;;;;;;;7.00;4.95;;;;;;;;;;5061734;28;20034;-85
2023/04/07 12:38:44;;;;;;;8.95;5.65;;;;;;;;;;5058234;28;20118;-86
2023/04/07 12:41:30;;;;;;;7.55;5.57;;;;;;;;;;5091698;28;20055;-85
2023/04/07 12:44:15;;;;;;;7.22;4.85;;;;;;;;;;5078694;28;20044;-85
2023/04/07 12:47:00;;;;;;;8.27;5.35;;;;;;;;;;5078539;28;20050;-85
2023/04/07 12:49:45;;;;;;;7.90;5.65;;;;;;;;;;5077993;28;20063;-85
2023/04/07 12:52:32;;;;;;;7.75;4.82;;;;;;;;;;5063802;28;20047;-86
2023/04/07 12:55:19;;;;;;;6.95;4.72;;;;;;;;;;5078378;28;20035;-87
2023/04/07 12:58:04;;;;;;;7.72;5.03;;;;;;;;;;5078288;28;20078;-86
2023/04/07 13:00:49;;;;;;;7.57;5.38;;;;;;;;;;5077989;28;20139;-86
2023/04/07 13:03:33;;;;;;;6.55;4.80;;;;;;;;;;5092993;28;20043;-87
2023/04/07 13:06:18;;;;;;;7.57;5.30;;;;;;;;;;5078277;28;20067;-92
2023/04/07 13:09:02;;;;;;;9.43;5.40;;;;;;;;;;5093458;28;20051;-85
2023/04/07 13:11:47;;;;;;;7.25;4.95;;;;;;;;;;5077159;28;20089;-86
2023/04/07 13:14:31;;;;;;;6.28;4.57;;;;;;;;;;5085315;28;20078;-85
2023/04/07 13:17:17;;;;;;;5.93;4.38;;;;;;;;;;5092313;28;20047;-84
2023/04/07 13:20:09;;;;;;;7.78;4.78;;;;;;;;;;5074401;28;20400;-88
2023/04/07 13:23:14;;;;;;;6.03;4.60;;;;;;;;;;5074086;28;20035;-92
2023/04/07 13:26:00;;;;;;;6.57;4.60;;;;;;;;;;5076085;28;20471;-87
2023/04/07 13:28:44;;;;;;;5.38;3.60;;;;;;;;;;5092592;28;20075;-87
2023/04/07 13:31:31;;;;;;;6.13;4.32;;;;;;;;;;5093116;28;20479;-85
2023/04/07 13:34:17;;;;;;;5.50;4.05;;;;;;;;;;5071145;28;21418;-85
2023/04/07 13:37:03;;;;;;;5.28;4.20;;;;;;;;;;5071141;28;20043;-87
2023/04/07 13:39:51;;;;;;;6.50;3.83;;;;;;;;;;5076983;28;20036;-88
2023/04/07 13:42:36;;;;;;;7.78;4.85;;;;;;;;;;5063130;28;20044;-85
2023/04/07 13:45:23;;;;;;;7.70;4.63;;;;;;;;;;5092744;28;20113;-88
2023/04/07 13:48:08;;;;;;;7.05;4.45;;;;;;;;;;5077174;28;20039;-85
2023/04/07 13:50:52;;;;;;;6.95;5.05;;;;;;;;;;5073942;28;20097;-85
2023/04/07 13:53:37;;;;;;;6.88;4.88;;;;;;;;;;5090192;28;20063;-84
2023/04/07 13:56:22;;;;;;;8.23;5.57;;;;;;;;;;5092249;28;20133;-86
2023/04/07 13:59:07;;;;;;;6.22;5.03;;;;;;;;;;5092548;28;20077;-87
2023/04/07 14:01:52;;;;;;;6.43;5.40;;;;;;;;;;5073703;28;20561;-85
2023/04/07 14:04:36;;;;;;;7.75;5.43;;;;;;;;;;5073740;28;20471;-89
2023/04/07 14:07:21;;;;;;;6.85;5.38;;;;;;;;;;5072609;28;20122;-86
2023/04/07 14:10:06;;;;;;;7.32;5.22;;;;;;;;;;5073639;28;20035;-85
2023/04/07 14:12:51;;;;;;;7.47;5.40;;;;;;;;;;5073570;28;20039;-85
2023/04/07 14:15:44;;;;;;;9.07;6.20;;;;;;;;;;5070790;28;20051;-89
2023/04/07 14:18:29;;;;;;;7.38;5.80;;;;;;;;;;5073859;28;20051;-85
2023/04/07 14:21:14;;;;;;;10.57;5.72;;;;;;;;;;5056958;28;20460;-86
2023/04/07 14:23:59;;;;;;;7.43;5.60;;;;;;;;;;5073215;28;20039;-85
2023/04/07 14:26:45;;;;;;;9.15;5.72;;;;;;;;;;5073364;28;20043;-84
2023/04/07 14:29:29;;;;;;;7.93;5.85;;;;;;;;;;5091419;28;20089;-84
2023/04/07 14:32:14;;;;;;;8.85;6.55;;;;;;;;;;5091841;28;20046;-84
2023/04/07 14:35:00;;;;;;;8.68;6.40;;;;;;;;;;5056261;28;20036;-85
2023/04/07 14:37:44;;;;;;;8.73;5.68;;;;;;;;;;5073043;28;20035;-86
2023/04/07 14:40:29;;;;;;;9.52;6.07;;;;;;;;;;5073614;28;20039;-86
2023/04/07 14:43:14;;;;;;;7.72;6.88;;;;;;;;;;5062385;28;20042;-85
2023/04/07 14:45:58;;;;;;;9.45;6.80;;;;;;;;;;5091300;28;20078;-85
2023/04/07 14:48:46;;;;;;;8.55;6.63;;;;;;;;;;5075805;28;20038;-86
2023/04/07 14:51:30;;;;;;;9.10;6.95;;;;;;;;;;5076326;28;20055;-85
2023/04/07 14:54:15;;;;;;;8.82;6.90;;;;;;;;;;5091729;28;20446;-89
2023/04/07 15:08:31;;;;;;;10.07;6.78;;;;;;;;;;5073849;22;28207593;-92
2023/04/07 15:11:16;;;;;;;9.98;7.07;;;;;;;;;;6146137;23;20023;-89
2023/04/07 15:14:00;;;;;;;9.98;6.70;;;;;;;;;;6221784;23;20018;-88
2023/04/07 15:16:47;;;;;;;9.93;6.95;;;;;;;;;;6221827;23;20062;-87
2023/04/07 15:19:31;;;;;;;10.05;7.07;;;;;;;;;;6222377;23;20024;-84
2023/04/07 15:22:16;;;;;;;9.45;7.18;;;;;;;;;;6220529;23;20462;-85
2023/04/07 15:25:02;;;;;;;9.77;7.43;;;;;;;;;;6220497;23;20014;-84
2023/04/07 15:27:47;;;;;;;9.95;7.70;;;;;;;;;;6221582;23;20019;-88
2023/04/07 15:30:32;;;;;;;9.73;6.25;;;;;;;;;;6220929;23;20019;-86
2023/04/07 15:33:16;;;;;;;9.65;6.95;;;;;;;;;;6221854;23;20407;-88
2023/04/07 15:36:25;;;;;;;14.00;8.98;;;;;;;;;;6221276;23;20066;-88
2023/04/07 15:39:10;;;;;;;14.40;9.30;;;;;;;;;;6220112;23;20030;-84
2023/04/07 15:41:55;;;;;;;10.13;7.45;;;;;;;;;;6220033;23;20016;-84
2023/04/07 15:44:40;;;;;;;13.55;8.80;;;;;;;;;;6221966;23;20015;-84
2023/04/07 15:47:24;;;;;;;11.85;7.93;;;;;;;;;;6200096;23;20035;-84
2023/04/07 15:50:09;;;;;;;10.80;7.78;;;;;;;;;;6221219;23;20019;-84
2023/04/07 15:52:54;;;;;;;9.75;7.60;;;;;;;;;;6220137;23;20020;-84
2023/04/07 15:55:38;;;;;;;11.52;7.40;;;;;;;;;;6220529;23;20023;-83
2023/04/07 15:58:23;;;;;;;9.63;7.78;;;;;;;;;;6220278;23;20028;-85
2023/04/07 16:01:08;;;;;;;11.75;7.85;;;;;;;;;;6220348;23;20015;-83
2023/04/07 16:03:52;;;;;;;9.43;7.63;;;;;;;;;;6219302;23;20019;-83
2023/04/07 16:06:37;;;;;;;10.40;8.15;;;;;;;;;;6219037;23;20466;-84
2023/04/07 16:09:24;;;;;;;10.60;7.97;;;;;;;;;;6214551;23;20019;-84
2023/04/07 16:12:09;;;;;;;10.05;8.02;;;;;;;;;;6213101;23;20016;-84
2023/04/07 16:14:53;;;;;;;11.35;8.20;;;;;;;;;;6212725;23;20120;-85
2023/04/07 16:17:39;;;;;;;10.32;7.47;;;;;;;;;;6213407;23;20405;-84
2023/04/07 16:20:24;;;;;;;9.93;7.97;;;;;;;;;;6192600;23;20461;-85
2023/04/07 16:23:09;;;;;;;11.35;8.48;;;;;;;;;;6214111;23;20414;-84
2023/04/07 16:25:54;;;;;;;10.38;8.18;;;;;;;;;;6213283;23;20066;-87
2023/04/07 16:28:40;;;;;;;9.05;6.80;;;;;;;;;;6192664;23;20020;-85
2023/04/07 16:31:25;;;;;;;9.98;7.20;;;;;;;;;;6214958;23;20079;-85
2023/04/07 16:34:10;;;;;;;9.40;6.90;;;;;;;;;;6191624;23;20035;-86
2023/04/07 16:36:57;;;;;;;8.25;6.57;;;;;;;;;;6213161;23;20023;-90
2023/04/07 16:39:42;;;;;;;10.55;7.80;;;;;;;;;;6213473;23;20019;-84
2023/04/07 16:42:29;;;;;;;9.48;7.03;;;;;;;;;;6192390;23;20070;-85